sensor_id;sensor_type;location;lat;lon;timestamp;P1;durP1;ratioP1;P2;durP2;ratioP2
67456;SDS011;54319;52.038;4.640;2023-07-13T00:01:15;24.70;;;3.80;;
67456;SDS011;54319;52.038;4.640;2023-07-13T00:03:42;14.85;;;3.15;;
67456;SDS011;54319;52.038;4.640;2023-07-13T00:06:09;20.02;;;3.50;;
67456;SDS011;54319;52.038;4.640;2023-07-13T00:08:36;22.20;;;3.38;;
67456;SDS011;54319;52.038;4.640;2023-07-13T00:11:03;21.48;;;4.93;;
67456;SDS011;54319;52.038;4.640;2023-07-13T00:13:31;11.68;;;3.20;;
67456;SDS011;54319;52.038;4.640;2023-07-13T00:15:58;21.75;;;3.72;;
67456;SDS011;54319;52.038;4.640;2023-07-13T00:18:27;19.25;;;3.50;;
67456;SDS011;54319;52.038;4.640;2023-07-13T00:20:55;16.95;;;3.53;;
67456;SDS011;54319;52.038;4.640;2023-07-13T00:23:30;16.33;;;3.10;;
67456;SDS011;54319;52.038;4.640;2023-07-13T00:25:58;13.10;;;3.50;;
67456;SDS011;54319;52.038;4.640;2023-07-13T00:28:25;17.48;;;3.08;;
67456;SDS011;54319;52.038;4.640;2023-07-13T00:30:52;16.40;;;3.20;;
67456;SDS011;54319;52.038;4.640;2023-07-13T00:33:19;19.95;;;3.63;;
67456;SDS011;54319;52.038;4.640;2023-07-13T00:35:47;15.25;;;3.30;;
67456;SDS011;54319;52.038;4.640;2023-07-13T00:38:14;17.77;;;3.65;;
67456;SDS011;54319;52.038;4.640;2023-07-13T00:40:41;15.27;;;3.20;;
67456;SDS011;54319;52.038;4.640;2023-07-13T00:43:09;13.15;;;3.00;;
67456;SDS011;54319;52.038;4.640;2023-07-13T00:51:15;10.10;;;2.53;;
67456;SDS011;54319;52.038;4.640;2023-07-13T00:53:45;17.27;;;3.28;;
67456;SDS011;54319;52.038;4.640;2023-07-13T00:56:11;14.15;;;2.92;;
67456;SDS011;54319;52.038;4.640;2023-07-13T00:58:39;17.63;;;2.72;;
67456;SDS011;54319;52.038;4.640;2023-07-13T01:01:05;16.08;;;3.17;;
67456;SDS011;54319;52.038;4.640;2023-07-13T01:03:32;10.13;;;2.95;;
67456;SDS011;54319;52.038;4.640;2023-07-13T01:06:01;20.33;;;3.15;;
67456;SDS011;54319;52.038;4.640;2023-07-13T01:08:30;11.48;;;2.83;;
67456;SDS011;54319;52.038;4.640;2023-07-13T01:10:57;12.32;;;2.80;;
67456;SDS011;54319;52.038;4.640;2023-07-13T01:13:24;19.35;;;2.83;;
67456;SDS011;54319;52.038;4.640;2023-07-13T01:15:51;17.35;;;3.08;;
67456;SDS011;54319;52.038;4.640;2023-07-13T01:18:20;12.65;;;2.63;;
67456;SDS011;54319;52.038;4.640;2023-07-13T01:20:54;13.40;;;3.05;;
67456;SDS011;54319;52.038;4.640;2023-07-13T01:23:22;10.32;;;2.80;;
67456;SDS011;54319;52.038;4.640;2023-07-13T01:25:50;12.20;;;2.75;;
67456;SDS011;54319;52.038;4.640;2023-07-13T01:28:17;12.55;;;2.83;;
67456;SDS011;54319;52.038;4.640;2023-07-13T01:30:44;12.50;;;2.75;;
67456;SDS011;54319;52.038;4.640;2023-07-13T01:33:12;10.45;;;3.20;;
67456;SDS011;54319;52.038;4.640;2023-07-13T01:35:39;16.50;;;3.28;;
67456;SDS011;54319;52.038;4.640;2023-07-13T01:38:08;13.63;;;2.42;;
67456;SDS011;54319;52.038;4.640;2023-07-13T01:40:36;11.13;;;2.67;;
67456;SDS011;54319;52.038;4.640;2023-07-13T01:43:04;9.05;;;2.28;;
67456;SDS011;54319;52.038;4.640;2023-07-13T01:45:32;10.27;;;2.10;;
67456;SDS011;54319;52.038;4.640;2023-07-13T01:47:58;9.10;;;2.17;;
67456;SDS011;54319;52.038;4.640;2023-07-13T01:50:25;9.63;;;2.35;;
67456;SDS011;54319;52.038;4.640;2023-07-13T01:52:52;7.90;;;2.15;;
67456;SDS011;54319;52.038;4.640;2023-07-13T01:55:20;9.43;;;2.28;;
67456;SDS011;54319;52.038;4.640;2023-07-13T01:57:47;8.88;;;2.08;;
67456;SDS011;54319;52.038;4.640;2023-07-13T02:00:14;6.47;;;1.65;;
67456;SDS011;54319;52.038;4.640;2023-07-13T02:02:41;5.85;;;1.70;;
67456;SDS011;54319;52.038;4.640;2023-07-13T02:05:09;5.57;;;1.50;;
67456;SDS011;54319;52.038;4.640;2023-07-13T02:07:36;5.15;;;1.50;;
67456;SDS011;54319;52.038;4.640;2023-07-13T02:10:03;5.50;;;1.48;;
67456;SDS011;54319;52.038;4.640;2023-07-13T02:12:32;5.07;;;1.40;;
67456;SDS011;54319;52.038;4.640;2023-07-13T02:14:59;9.90;;;1.80;;
67456;SDS011;54319;52.038;4.640;2023-07-13T02:17:26;5.85;;;1.40;;
67456;SDS011;54319;52.038;4.640;2023-07-13T02:19:53;5.00;;;1.30;;
67456;SDS011;54319;52.038;4.640;2023-07-13T02:22:20;6.43;;;1.58;;
67456;SDS011;54319;52.038;4.640;2023-07-13T02:24:47;6.70;;;1.55;;
67456;SDS011;54319;52.038;4.640;2023-07-13T02:27:13;5.72;;;1.63;;
67456;SDS011;54319;52.038;4.640;2023-07-13T02:29:42;6.97;;;1.57;;
67456;SDS011;54319;52.038;4.640;2023-07-13T02:32:09;5.38;;;1.65;;
67456;SDS011;54319;52.038;4.640;2023-07-13T02:34:36;6.10;;;1.52;;
67456;SDS011;54319;52.038;4.640;2023-07-13T02:37:02;7.33;;;1.50;;
67456;SDS011;54319;52.038;4.640;2023-07-13T02:41:58;6.50;;;1.75;;
67456;SDS011;54319;52.038;4.640;2023-07-13T02:46:53;9.63;;;2.35;;
67456;SDS011;54319;52.038;4.640;2023-07-13T02:49:20;6.72;;;2.00;;
67456;SDS011;54319;52.038;4.640;2023-07-13T02:51:46;6.40;;;2.22;;
67456;SDS011;54319;52.038;4.640;2023-07-13T02:54:13;5.47;;;2.38;;
67456;SDS011;54319;52.038;4.640;2023-07-13T02:56:40;7.38;;;2.20;;
67456;SDS011;54319;52.038;4.640;2023-07-13T02:59:08;6.88;;;2.22;;
67456;SDS011;54319;52.038;4.640;2023-07-13T03:01:36;10.07;;;2.35;;
67456;SDS011;54319;52.038;4.640;2023-07-13T03:04:04;8.73;;;1.95;;
67456;SDS011;54319;52.038;4.640;2023-07-13T03:06:31;10.07;;;2.55;;
67456;SDS011;54319;52.038;4.640;2023-07-13T03:11:26;8.38;;;2.33;;
67456;SDS011;54319;52.038;4.640;2023-07-13T03:13:52;11.77;;;2.50;;
67456;SDS011;54319;52.038;4.640;2023-07-13T03:16:19;11.65;;;2.70;;
67456;SDS011;54319;52.038;4.640;2023-07-13T03:18:46;9.32;;;2.40;;
67456;SDS011;54319;52.038;4.640;2023-07-13T03:21:15;9.90;;;2.58;;
67456;SDS011;54319;52.038;4.640;2023-07-13T03:23:42;11.80;;;2.85;;
67456;SDS011;54319;52.038;4.640;2023-07-13T03:26:10;8.85;;;2.78;;
67456;SDS011;54319;52.038;4.640;2023-07-13T03:28:39;8.05;;;2.30;;
67456;SDS011;54319;52.038;4.640;2023-07-13T03:31:06;19.35;;;2.92;;
67456;SDS011;54319;52.038;4.640;2023-07-13T03:33:35;14.30;;;3.30;;
67456;SDS011;54319;52.038;4.640;2023-07-13T03:36:02;13.15;;;3.08;;
67456;SDS011;54319;52.038;4.640;2023-07-13T03:38:31;8.00;;;2.42;;
67456;SDS011;54319;52.038;4.640;2023-07-13T03:40:58;14.00;;;2.90;;
67456;SDS011;54319;52.038;4.640;2023-07-13T03:43:25;16.52;;;3.20;;
67456;SDS011;54319;52.038;4.640;2023-07-13T03:45:52;18.23;;;3.00;;
67456;SDS011;54319;52.038;4.640;2023-07-13T03:48:19;12.02;;;3.20;;
67456;SDS011;54319;52.038;4.640;2023-07-13T03:50:46;16.48;;;3.15;;
67456;SDS011;54319;52.038;4.640;2023-07-13T03:53:14;11.95;;;2.60;;
67456;SDS011;54319;52.038;4.640;2023-07-13T03:55:42;16.80;;;3.08;;
67456;SDS011;54319;52.038;4.640;2023-07-13T03:58:31;16.33;;;3.50;;
67456;SDS011;54319;52.038;4.640;2023-07-13T04:00:59;17.05;;;3.50;;
67456;SDS011;54319;52.038;4.640;2023-07-13T04:03:27;11.52;;;2.75;;
67456;SDS011;54319;52.038;4.640;2023-07-13T04:05:54;17.85;;;3.50;;
67456;SDS011;54319;52.038;4.640;2023-07-13T04:08:24;16.23;;;3.28;;
67456;SDS011;54319;52.038;4.640;2023-07-13T04:10:53;14.63;;;2.92;;
67456;SDS011;54319;52.038;4.640;2023-07-13T04:13:19;12.10;;;3.10;;
67456;SDS011;54319;52.038;4.640;2023-07-13T04:15:46;16.63;;;2.97;;
67456;SDS011;54319;52.038;4.640;2023-07-13T04:18:13;18.88;;;3.53;;
67456;SDS011;54319;52.038;4.640;2023-07-13T04:20:39;17.42;;;3.60;;
67456;SDS011;54319;52.038;4.640;2023-07-13T04:23:06;13.60;;;3.08;;
67456;SDS011;54319;52.038;4.640;2023-07-13T04:25:33;14.88;;;3.10;;
67456;SDS011;54319;52.038;4.640;2023-07-13T04:28:02;12.13;;;3.22;;
67456;SDS011;54319;52.038;4.640;2023-07-13T04:30:30;13.02;;;3.10;;
67456;SDS011;54319;52.038;4.640;2023-07-13T04:32:56;10.98;;;3.30;;
67456;SDS011;54319;52.038;4.640;2023-07-13T04:35:23;13.60;;;3.00;;
67456;SDS011;54319;52.038;4.640;2023-07-13T04:37:50;15.27;;;2.90;;
67456;SDS011;54319;52.038;4.640;2023-07-13T04:40:17;10.20;;;3.03;;
67456;SDS011;54319;52.038;4.640;2023-07-13T04:42:44;13.30;;;2.88;;
67456;SDS011;54319;52.038;4.640;2023-07-13T04:45:13;12.75;;;3.17;;
67456;SDS011;54319;52.038;4.640;2023-07-13T04:47:40;12.63;;;3.05;;
67456;SDS011;54319;52.038;4.640;2023-07-13T04:50:08;17.05;;;3.30;;
67456;SDS011;54319;52.038;4.640;2023-07-13T04:52:36;15.45;;;3.38;;
67456;SDS011;54319;52.038;4.640;2023-07-13T04:55:03;10.57;;;3.70;;
67456;SDS011;54319;52.038;4.640;2023-07-13T04:57:30;15.32;;;3.50;;
67456;SDS011;54319;52.038;4.640;2023-07-13T04:59:58;14.38;;;3.58;;
67456;SDS011;54319;52.038;4.640;2023-07-13T05:02:33;15.95;;;3.95;;
67456;SDS011;54319;52.038;4.640;2023-07-13T05:05:00;18.27;;;3.83;;
67456;SDS011;54319;52.038;4.640;2023-07-13T05:07:29;15.05;;;3.72;;
67456;SDS011;54319;52.038;4.640;2023-07-13T05:09:58;11.07;;;3.50;;
67456;SDS011;54319;52.038;4.640;2023-07-13T05:12:24;15.90;;;3.28;;
67456;SDS011;54319;52.038;4.640;2023-07-13T05:14:51;18.33;;;4.00;;
67456;SDS011;54319;52.038;4.640;2023-07-13T05:17:18;13.97;;;3.27;;
67456;SDS011;54319;52.038;4.640;2023-07-13T05:19:46;14.02;;;3.53;;
67456;SDS011;54319;52.038;4.640;2023-07-13T05:22:12;13.57;;;3.45;;
67456;SDS011;54319;52.038;4.640;2023-07-13T05:24:39;11.57;;;2.92;;
67456;SDS011;54319;52.038;4.640;2023-07-13T05:27:06;8.43;;;3.28;;
67456;SDS011;54319;52.038;4.640;2023-07-13T05:29:32;13.57;;;2.50;;
67456;SDS011;54319;52.038;4.640;2023-07-13T05:31:59;11.27;;;2.70;;
67456;SDS011;54319;52.038;4.640;2023-07-13T05:34:26;7.70;;;2.65;;
67456;SDS011;54319;52.038;4.640;2023-07-13T05:36:54;11.45;;;2.78;;
67456;SDS011;54319;52.038;4.640;2023-07-13T05:39:21;9.45;;;2.40;;
67456;SDS011;54319;52.038;4.640;2023-07-13T05:41:47;10.15;;;2.97;;
67456;SDS011;54319;52.038;4.640;2023-07-13T05:44:14;7.40;;;3.13;;
67456;SDS011;54319;52.038;4.640;2023-07-13T05:46:41;9.27;;;2.45;;
67456;SDS011;54319;52.038;4.640;2023-07-13T05:49:07;6.75;;;2.38;;
67456;SDS011;54319;52.038;4.640;2023-07-13T05:51:34;10.95;;;2.38;;
67456;SDS011;54319;52.038;4.640;2023-07-13T05:54:02;7.80;;;2.30;;
67456;SDS011;54319;52.038;4.640;2023-07-13T05:56:29;7.15;;;2.15;;
67456;SDS011;54319;52.038;4.640;2023-07-13T05:58:55;10.23;;;2.67;;
67456;SDS011;54319;52.038;4.640;2023-07-13T06:01:22;7.88;;;2.30;;
67456;SDS011;54319;52.038;4.640;2023-07-13T06:03:49;8.35;;;2.20;;
67456;SDS011;54319;52.038;4.640;2023-07-13T06:06:16;10.30;;;2.03;;
67456;SDS011;54319;52.038;4.640;2023-07-13T06:08:43;8.10;;;2.40;;
67456;SDS011;54319;52.038;4.640;2023-07-13T06:11:12;11.10;;;2.45;;
67456;SDS011;54319;52.038;4.640;2023-07-13T06:13:41;10.93;;;3.38;;
67456;SDS011;54319;52.038;4.640;2023-07-13T06:16:08;17.17;;;3.10;;
67456;SDS011;54319;52.038;4.640;2023-07-13T06:18:35;15.18;;;3.40;;
67456;SDS011;54319;52.038;4.640;2023-07-13T06:21:05;13.35;;;3.30;;
67456;SDS011;54319;52.038;4.640;2023-07-13T06:23:35;10.07;;;2.58;;
67456;SDS011;54319;52.038;4.640;2023-07-13T06:26:02;7.97;;;2.55;;
67456;SDS011;54319;52.038;4.640;2023-07-13T06:28:30;6.57;;;2.40;;
67456;SDS011;54319;52.038;4.640;2023-07-13T06:30:58;7.60;;;2.10;;
67456;SDS011;54319;52.038;4.640;2023-07-13T06:33:25;5.57;;;2.40;;
67456;SDS011;54319;52.038;4.640;2023-07-13T06:40:46;8.05;;;2.45;;
67456;SDS011;54319;52.038;4.640;2023-07-13T06:43:12;5.60;;;1.92;;
67456;SDS011;54319;52.038;4.640;2023-07-13T06:45:41;9.30;;;2.78;;
67456;SDS011;54319;52.038;4.640;2023-07-13T06:48:11;5.78;;;2.50;;
67456;SDS011;54319;52.038;4.640;2023-07-13T06:50:37;5.97;;;2.45;;
67456;SDS011;54319;52.038;4.640;2023-07-13T06:53:04;10.48;;;3.00;;
67456;SDS011;54319;52.038;4.640;2023-07-13T06:55:31;11.27;;;2.80;;
67456;SDS011;54319;52.038;4.640;2023-07-13T06:57:57;6.85;;;2.75;;
67456;SDS011;54319;52.038;4.640;2023-07-13T07:00:24;4.28;;;2.78;;
67456;SDS011;54319;52.038;4.640;2023-07-13T07:02:52;7.38;;;2.75;;
67456;SDS011;54319;52.038;4.640;2023-07-13T07:05:19;6.07;;;2.33;;
67456;SDS011;54319;52.038;4.640;2023-07-13T07:07:46;10.10;;;2.60;;
67456;SDS011;54319;52.038;4.640;2023-07-13T07:10:13;4.13;;;2.38;;
67456;SDS011;54319;52.038;4.640;2023-07-13T07:12:40;5.20;;;2.53;;
67456;SDS011;54319;52.038;4.640;2023-07-13T07:15:07;6.82;;;2.65;;
67456;SDS011;54319;52.038;4.640;2023-07-13T07:20:02;6.47;;;2.25;;
67456;SDS011;54319;52.038;4.640;2023-07-13T07:22:29;9.15;;;2.72;;
67456;SDS011;54319;52.038;4.640;2023-07-13T07:24:56;4.35;;;2.28;;
67456;SDS011;54319;52.038;4.640;2023-07-13T07:27:23;7.05;;;2.53;;
67456;SDS011;54319;52.038;4.640;2023-07-13T07:32:16;4.82;;;2.22;;
67456;SDS011;54319;52.038;4.640;2023-07-13T07:34:43;4.82;;;2.40;;
67456;SDS011;54319;52.038;4.640;2023-07-13T07:37:12;11.30;;;2.92;;
67456;SDS011;54319;52.038;4.640;2023-07-13T07:39:40;8.13;;;2.47;;
67456;SDS011;54319;52.038;4.640;2023-07-13T07:42:07;7.85;;;2.55;;
67456;SDS011;54319;52.038;4.640;2023-07-13T07:44:33;7.18;;;2.40;;
67456;SDS011;54319;52.038;4.640;2023-07-13T07:47:00;7.60;;;2.70;;
67456;SDS011;54319;52.038;4.640;2023-07-13T07:49:27;7.78;;;2.30;;
67456;SDS011;54319;52.038;4.640;2023-07-13T07:51:54;7.63;;;2.33;;
67456;SDS011;54319;52.038;4.640;2023-07-13T07:54:22;6.50;;;2.28;;
67456;SDS011;54319;52.038;4.640;2023-07-13T07:56:49;4.28;;;2.03;;
67456;SDS011;54319;52.038;4.640;2023-07-13T07:59:16;8.05;;;2.47;;
67456;SDS011;54319;52.038;4.640;2023-07-13T08:01:42;6.38;;;2.30;;
67456;SDS011;54319;52.038;4.640;2023-07-13T08:04:11;6.18;;;2.50;;
67456;SDS011;54319;52.038;4.640;2023-07-13T08:06:38;5.25;;;2.33;;
67456;SDS011;54319;52.038;4.640;2023-07-13T08:09:04;4.97;;;2.33;;
67456;SDS011;54319;52.038;4.640;2023-07-13T08:11:33;10.52;;;2.17;;
67456;SDS011;54319;52.038;4.640;2023-07-13T08:13:59;8.00;;;2.58;;
67456;SDS011;54319;52.038;4.640;2023-07-13T08:16:26;6.85;;;2.33;;
67456;SDS011;54319;52.038;4.640;2023-07-13T08:18:53;6.18;;;2.20;;
67456;SDS011;54319;52.038;4.640;2023-07-13T08:21:19;5.10;;;2.10;;
67456;SDS011;54319;52.038;4.640;2023-07-13T08:23:47;7.00;;;2.13;;
67456;SDS011;54319;52.038;4.640;2023-07-13T08:26:13;4.88;;;2.00;;
67456;SDS011;54319;52.038;4.640;2023-07-13T08:28:42;7.60;;;2.15;;
67456;SDS011;54319;52.038;4.640;2023-07-13T08:31:08;6.95;;;2.10;;
67456;SDS011;54319;52.038;4.640;2023-07-13T08:33:36;8.88;;;2.50;;
67456;SDS011;54319;52.038;4.640;2023-07-13T08:36:03;6.75;;;1.80;;
67456;SDS011;54319;52.038;4.640;2023-07-13T08:38:31;4.35;;;1.80;;
67456;SDS011;54319;52.038;4.640;2023-07-13T08:40:57;4.30;;;2.05;;
67456;SDS011;54319;52.038;4.640;2023-07-13T08:43:28;7.07;;;2.10;;
67456;SDS011;54319;52.038;4.640;2023-07-13T08:46:16;7.78;;;2.05;;
67456;SDS011;54319;52.038;4.640;2023-07-13T08:48:56;3.58;;;1.73;;
67456;SDS011;54319;52.038;4.640;2023-07-13T08:51:26;4.00;;;1.80;;
67456;SDS011;54319;52.038;4.640;2023-07-13T08:54:02;5.55;;;2.00;;
67456;SDS011;54319;52.038;4.640;2023-07-13T08:56:31;6.28;;;2.10;;
67456;SDS011;54319;52.038;4.640;2023-07-13T08:59:00;3.65;;;2.03;;
67456;SDS011;54319;52.038;4.640;2023-07-13T09:01:33;6.90;;;2.28;;
67456;SDS011;54319;52.038;4.640;2023-07-13T09:04:14;5.05;;;2.30;;
67456;SDS011;54319;52.038;4.640;2023-07-13T09:06:49;5.65;;;2.03;;
67456;SDS011;54319;52.038;4.640;2023-07-13T09:09:29;6.03;;;2.63;;
67456;SDS011;54319;52.038;4.640;2023-07-13T09:12:08;5.63;;;2.10;;
67456;SDS011;54319;52.038;4.640;2023-07-13T09:14:44;4.75;;;2.15;;
67456;SDS011;54319;52.038;4.640;2023-07-13T09:17:17;7.50;;;2.60;;
67456;SDS011;54319;52.038;4.640;2023-07-13T09:19:48;9.32;;;2.53;;
67456;SDS011;54319;52.038;4.640;2023-07-13T09:22:20;7.07;;;2.70;;
67456;SDS011;54319;52.038;4.640;2023-07-13T09:24:52;6.60;;;2.33;;
67456;SDS011;54319;52.038;4.640;2023-07-13T09:27:27;10.30;;;2.80;;
67456;SDS011;54319;52.038;4.640;2023-07-13T09:30:02;3.80;;;2.08;;
67456;SDS011;54319;52.038;4.640;2023-07-13T09:32:47;7.68;;;2.30;;
67456;SDS011;54319;52.038;4.640;2023-07-13T09:35:18;6.28;;;2.13;;
67456;SDS011;54319;52.038;4.640;2023-07-13T09:37:47;6.28;;;2.35;;
67456;SDS011;54319;52.038;4.640;2023-07-13T09:40:17;8.07;;;2.80;;
67456;SDS011;54319;52.038;4.640;2023-07-13T09:42:50;8.75;;;2.55;;
67456;SDS011;54319;52.038;4.640;2023-07-13T09:45:26;6.05;;;2.40;;
67456;SDS011;54319;52.038;4.640;2023-07-13T09:48:02;6.65;;;2.20;;
67456;SDS011;54319;52.038;4.640;2023-07-13T09:52:57;4.30;;;1.92;;
67456;SDS011;54319;52.038;4.640;2023-07-13T09:55:26;6.03;;;1.85;;
67456;SDS011;54319;52.038;4.640;2023-07-13T09:57:56;4.03;;;2.05;;
67456;SDS011;54319;52.038;4.640;2023-07-13T10:00:25;5.60;;;2.20;;
67456;SDS011;54319;52.038;4.640;2023-07-13T10:02:58;5.18;;;2.38;;
67456;SDS011;54319;52.038;4.640;2023-07-13T10:05:28;6.68;;;2.58;;
67456;SDS011;54319;52.038;4.640;2023-07-13T10:08:04;3.97;;;2.10;;
67456;SDS011;54319;52.038;4.640;2023-07-13T10:10:32;4.45;;;2.05;;
67456;SDS011;54319;52.038;4.640;2023-07-13T10:13:00;6.95;;;2.40;;
67456;SDS011;54319;52.038;4.640;2023-07-13T10:15:29;6.60;;;2.47;;
67456;SDS011;54319;52.038;4.640;2023-07-13T10:17:56;9.13;;;2.22;;
67456;SDS011;54319;52.038;4.640;2023-07-13T10:20:25;7.65;;;2.22;;
67456;SDS011;54319;52.038;4.640;2023-07-13T10:22:54;5.40;;;2.15;;
67456;SDS011;54319;52.038;4.640;2023-07-13T10:25:25;9.95;;;2.33;;
67456;SDS011;54319;52.038;4.640;2023-07-13T10:27:54;5.60;;;2.05;;
67456;SDS011;54319;52.038;4.640;2023-07-13T10:30:25;5.88;;;2.30;;
67456;SDS011;54319;52.038;4.640;2023-07-13T10:32:57;6.07;;;2.20;;
67456;SDS011;54319;52.038;4.640;2023-07-13T10:35:25;8.02;;;2.50;;
67456;SDS011;54319;52.038;4.640;2023-07-13T10:37:56;4.22;;;2.10;;
67456;SDS011;54319;52.038;4.640;2023-07-13T10:40:33;6.60;;;2.17;;
67456;SDS011;54319;52.038;4.640;2023-07-13T10:43:04;3.33;;;1.80;;
67456;SDS011;54319;52.038;4.640;2023-07-13T10:45:40;7.40;;;2.10;;
67456;SDS011;54319;52.038;4.640;2023-07-13T10:48:08;5.80;;;2.40;;
67456;SDS011;54319;52.038;4.640;2023-07-13T10:50:40;7.05;;;2.30;;
67456;SDS011;54319;52.038;4.640;2023-07-13T10:53:18;3.55;;;2.08;;
67456;SDS011;54319;52.038;4.640;2023-07-13T10:55:54;5.88;;;2.35;;
67456;SDS011;54319;52.038;4.640;2023-07-13T10:58:41;5.68;;;2.60;;
67456;SDS011;54319;52.038;4.640;2023-07-13T11:01:12;4.20;;;1.98;;
67456;SDS011;54319;52.038;4.640;2023-07-13T11:03:46;6.60;;;2.17;;
67456;SDS011;54319;52.038;4.640;2023-07-13T11:06:17;5.88;;;2.20;;
67456;SDS011;54319;52.038;4.640;2023-07-13T11:09:07;5.05;;;2.00;;
67456;SDS011;54319;52.038;4.640;2023-07-13T11:11:45;3.88;;;1.95;;
67456;SDS011;54319;52.038;4.640;2023-07-13T11:16:52;5.43;;;1.98;;
67456;SDS011;54319;52.038;4.640;2023-07-13T11:19:38;8.25;;;2.20;;
67456;SDS011;54319;52.038;4.640;2023-07-13T11:22:13;6.45;;;2.30;;
67456;SDS011;54319;52.038;4.640;2023-07-13T11:27:52;2.83;;;1.67;;
67456;SDS011;54319;52.038;4.640;2023-07-13T11:30:35;4.03;;;1.90;;
67456;SDS011;54319;52.038;4.640;2023-07-13T11:33:12;4.32;;;1.90;;
67456;SDS011;54319;52.038;4.640;2023-07-13T11:35:44;6.20;;;2.35;;
67456;SDS011;54319;52.038;4.640;2023-07-13T11:38:17;3.45;;;1.77;;
67456;SDS011;54319;52.038;4.640;2023-07-13T11:40:47;6.03;;;1.98;;
67456;SDS011;54319;52.038;4.640;2023-07-13T11:43:16;5.20;;;1.88;;
67456;SDS011;54319;52.038;4.640;2023-07-13T11:48:19;5.95;;;2.20;;
67456;SDS011;54319;52.038;4.640;2023-07-13T11:50:49;6.10;;;2.30;;
67456;SDS011;54319;52.038;4.640;2023-07-13T11:53:24;5.03;;;1.85;;
67456;SDS011;54319;52.038;4.640;2023-07-13T11:55:54;2.95;;;1.70;;
67456;SDS011;54319;52.038;4.640;2023-07-13T11:58:23;3.60;;;1.70;;
67456;SDS011;54319;52.038;4.640;2023-07-13T12:00:53;4.15;;;1.90;;
67456;SDS011;54319;52.038;4.640;2023-07-13T12:03:24;6.68;;;2.20;;
67456;SDS011;54319;52.038;4.640;2023-07-13T12:05:55;9.52;;;2.30;;
67456;SDS011;54319;52.038;4.640;2023-07-13T12:08:24;4.65;;;1.95;;
67456;SDS011;54319;52.038;4.640;2023-07-13T12:11:02;4.05;;;2.10;;
67456;SDS011;54319;52.038;4.640;2023-07-13T12:13:41;4.53;;;2.20;;
67456;SDS011;54319;52.038;4.640;2023-07-13T12:16:20;4.15;;;2.22;;
67456;SDS011;54319;52.038;4.640;2023-07-13T12:18:52;3.70;;;2.00;;
67456;SDS011;54319;52.038;4.640;2023-07-13T12:21:22;3.28;;;1.98;;
67456;SDS011;54319;52.038;4.640;2023-07-13T12:23:56;7.00;;;2.40;;
67456;SDS011;54319;52.038;4.640;2023-07-13T12:26:23;3.60;;;1.63;;
67456;SDS011;54319;52.038;4.640;2023-07-13T12:28:51;3.72;;;2.00;;
67456;SDS011;54319;52.038;4.640;2023-07-13T12:31:31;3.83;;;1.90;;
67456;SDS011;54319;52.038;4.640;2023-07-13T12:34:01;3.90;;;1.88;;
67456;SDS011;54319;52.038;4.640;2023-07-13T12:36:33;4.00;;;2.00;;
67456;SDS011;54319;52.038;4.640;2023-07-13T12:39:04;4.43;;;2.03;;
67456;SDS011;54319;52.038;4.640;2023-07-13T12:41:38;4.28;;;1.77;;
67456;SDS011;54319;52.038;4.640;2023-07-13T12:44:08;4.68;;;2.00;;
67456;SDS011;54319;52.038;4.640;2023-07-13T12:46:37;3.10;;;1.80;;
67456;SDS011;54319;52.038;4.640;2023-07-13T12:51:33;4.50;;;1.67;;
67456;SDS011;54319;52.038;4.640;2023-07-13T12:54:07;6.25;;;1.98;;
67456;SDS011;54319;52.038;4.640;2023-07-13T12:56:41;3.95;;;1.90;;
67456;SDS011;54319;52.038;4.640;2023-07-13T12:59:12;5.28;;;1.83;;
67456;SDS011;54319;52.038;4.640;2023-07-13T13:01:44;7.00;;;2.10;;
67456;SDS011;54319;52.038;4.640;2023-07-13T13:04:12;6.28;;;1.83;;
67456;SDS011;54319;52.038;4.640;2023-07-13T13:09:09;5.57;;;1.67;;
67456;SDS011;54319;52.038;4.640;2023-07-13T13:11:38;5.40;;;1.90;;
67456;SDS011;54319;52.038;4.640;2023-07-13T13:14:06;4.65;;;1.88;;
67456;SDS011;54319;52.038;4.640;2023-07-13T13:16:34;5.32;;;1.88;;
67456;SDS011;54319;52.038;4.640;2023-07-13T13:19:05;4.35;;;1.88;;
67456;SDS011;54319;52.038;4.640;2023-07-13T13:21:39;4.78;;;1.58;;
67456;SDS011;54319;52.038;4.640;2023-07-13T13:24:10;3.15;;;1.50;;
67456;SDS011;54319;52.038;4.640;2023-07-13T13:26:39;6.32;;;1.90;;
67456;SDS011;54319;52.038;4.640;2023-07-13T13:29:09;3.83;;;1.90;;
67456;SDS011;54319;52.038;4.640;2023-07-13T13:31:39;5.05;;;1.65;;
67456;SDS011;54319;52.038;4.640;2023-07-13T13:36:34;5.97;;;1.77;;
67456;SDS011;54319;52.038;4.640;2023-07-13T13:39:01;6.70;;;1.90;;
67456;SDS011;54319;52.038;4.640;2023-07-13T13:41:31;2.90;;;1.50;;
67456;SDS011;54319;52.038;4.640;2023-07-13T13:43:57;5.25;;;1.80;;
67456;SDS011;54319;52.038;4.640;2023-07-13T13:46:24;7.45;;;2.00;;
67456;SDS011;54319;52.038;4.640;2023-07-13T13:48:54;4.70;;;1.55;;
67456;SDS011;54319;52.038;4.640;2023-07-13T13:51:22;3.90;;;1.55;;
67456;SDS011;54319;52.038;4.640;2023-07-13T13:53:50;3.67;;;1.58;;
67456;SDS011;54319;52.038;4.640;2023-07-13T13:56:18;3.30;;;1.70;;
67456;SDS011;54319;52.038;4.640;2023-07-13T13:58:47;2.58;;;1.50;;
67456;SDS011;54319;52.038;4.640;2023-07-13T14:01:16;5.68;;;2.08;;
67456;SDS011;54319;52.038;4.640;2023-07-13T14:03:45;3.08;;;1.58;;
67456;SDS011;54319;52.038;4.640;2023-07-13T14:06:13;2.03;;;1.50;;
67456;SDS011;54319;52.038;4.640;2023-07-13T14:08:42;5.55;;;1.65;;
67456;SDS011;54319;52.038;4.640;2023-07-13T14:11:10;4.38;;;1.63;;
67456;SDS011;54319;52.038;4.640;2023-07-13T14:13:40;2.33;;;1.48;;
67456;SDS011;54319;52.038;4.640;2023-07-13T14:16:15;3.47;;;1.50;;
67456;SDS011;54319;52.038;4.640;2023-07-13T14:18:46;3.13;;;1.55;;
67456;SDS011;54319;52.038;4.640;2023-07-13T14:21:14;3.28;;;1.60;;
67456;SDS011;54319;52.038;4.640;2023-07-13T14:23:43;2.78;;;1.33;;
67456;SDS011;54319;52.038;4.640;2023-07-13T14:26:11;3.72;;;1.45;;
67456;SDS011;54319;52.038;4.640;2023-07-13T14:28:41;6.20;;;1.63;;
67456;SDS011;54319;52.038;4.640;2023-07-13T14:31:09;2.38;;;1.33;;
67456;SDS011;54319;52.038;4.640;2023-07-13T14:33:38;2.88;;;1.40;;
67456;SDS011;54319;52.038;4.640;2023-07-13T14:36:05;2.17;;;1.08;;
67456;SDS011;54319;52.038;4.640;2023-07-13T14:38:46;2.67;;;1.35;;
67456;SDS011;54319;52.038;4.640;2023-07-13T14:41:13;3.65;;;1.45;;
67456;SDS011;54319;52.038;4.640;2023-07-13T14:43:40;3.22;;;1.35;;
67456;SDS011;54319;52.038;4.640;2023-07-13T14:46:07;2.33;;;1.17;;
67456;SDS011;54319;52.038;4.640;2023-07-13T14:48:45;3.70;;;1.40;;
67456;SDS011;54319;52.038;4.640;2023-07-13T14:51:12;2.45;;;1.08;;
67456;SDS011;54319;52.038;4.640;2023-07-13T14:53:39;2.15;;;0.98;;
67456;SDS011;54319;52.038;4.640;2023-07-13T14:56:08;5.10;;;1.40;;
67456;SDS011;54319;52.038;4.640;2023-07-13T14:58:36;4.18;;;1.40;;
67456;SDS011;54319;52.038;4.640;2023-07-13T15:01:07;4.25;;;1.42;;
67456;SDS011;54319;52.038;4.640;2023-07-13T15:03:38;2.28;;;1.15;;
67456;SDS011;54319;52.038;4.640;2023-07-13T15:06:11;6.68;;;1.70;;
67456;SDS011;54319;52.038;4.640;2023-07-13T15:08:39;3.30;;;1.58;;
67456;SDS011;54319;52.038;4.640;2023-07-13T15:11:06;2.75;;;1.25;;
67456;SDS011;54319;52.038;4.640;2023-07-13T15:16:00;3.58;;;1.80;;
67456;SDS011;54319;52.038;4.640;2023-07-13T15:18:27;3.13;;;1.33;;
67456;SDS011;54319;52.038;4.640;2023-07-13T15:20:54;3.70;;;1.50;;
67456;SDS011;54319;52.038;4.640;2023-07-13T15:23:24;5.22;;;1.52;;
67456;SDS011;54319;52.038;4.640;2023-07-13T15:25:52;3.90;;;1.42;;
67456;SDS011;54319;52.038;4.640;2023-07-13T15:28:19;3.67;;;1.50;;
67456;SDS011;54319;52.038;4.640;2023-07-13T15:30:46;3.40;;;1.60;;
67456;SDS011;54319;52.038;4.640;2023-07-13T15:33:17;3.10;;;1.40;;
67456;SDS011;54319;52.038;4.640;2023-07-13T15:35:47;2.95;;;1.48;;
67456;SDS011;54319;52.038;4.640;2023-07-13T15:38:16;4.57;;;1.30;;